Terminal Aerodrome Forecast
Issued by NWS Twin Cities, MN

Home | Current Version | Previous Version | Text Only | Print | Product List | Glossary On
Versions: 1 2 3 4 5 6 7 8 9 10 11 12 13 14 15 16 17
000
FTUS43 KMPX 261700 RRA
TAFSTC
TAF
KSTC 261739Z 2618/2718 01010KT P6SM OVC015
      TEMPO 2618/2621 3SM -SN BR
     FM270600 35007KT 4SM -SN BR OVC015
     FM271200 32008KT P6SM OVC022=

USA.gov is the U.S. government's official web portal to all federal, state and local government web resources and services.